createdAt,value
2019-01-15T00:02:05.797Z,4.79
2019-01-15T00:04:36.231Z,4.77
2019-01-15T00:07:06.788Z,4.76
2019-01-15T00:09:37.298Z,4.66
2019-01-15T00:12:08.190Z,4.59
2019-01-15T00:14:38.642Z,4.54
2019-01-15T00:17:09.638Z,4.58
2019-01-15T00:19:40.300Z,4.56
2019-01-15T00:22:10.823Z,4.51
2019-01-15T00:24:41.530Z,4.43
2019-01-15T00:27:12.017Z,4.44
2019-01-15T00:29:42.818Z,4.41
2019-01-15T00:32:14.811Z,4.35
2019-01-15T00:34:45.309Z,4.38
2019-01-15T00:37:16.846Z,4.40
2019-01-15T00:39:47.892Z,4.39
2019-01-15T00:42:18.304Z,4.42
2019-01-15T00:44:49.100Z,4.34
2019-01-15T00:47:19.649Z,4.29
2019-01-15T00:49:50.124Z,4.23
2019-01-15T00:52:20.750Z,4.25
2019-01-15T00:54:51.401Z,4.30
2019-01-15T00:57:23.022Z,4.23
2019-01-15T00:59:53.586Z,4.16
2019-01-15T01:02:24.529Z,4.07
2019-01-15T01:04:55.033Z,4.06
2019-01-15T01:07:27.173Z,4.01
2019-01-15T01:10:03.715Z,4.08
2019-01-15T01:12:34.368Z,4.08
2019-01-15T01:15:04.908Z,4.12
2019-01-15T01:17:36.905Z,4.15
2019-01-15T01:20:10.194Z,4.20
2019-01-15T01:22:40.741Z,4.18
2019-01-15T01:25:13.481Z,4.25
2019-01-15T01:27:44.085Z,4.15
2019-01-15T01:30:17.920Z,4.14
2019-01-15T01:32:48.263Z,4.16
2019-01-15T01:35:18.636Z,4.17
2019-01-15T01:37:49.267Z,4.13
2019-01-15T01:40:23.179Z,4.14
2019-01-15T01:42:53.747Z,3.99
2019-01-15T01:45:24.360Z,4.01
2019-01-15T01:47:56.385Z,4.03
2019-01-15T01:50:27.619Z,4.11
2019-01-15T01:52:58.546Z,4.09
2019-01-15T01:55:29.130Z,4.06
2019-01-15T01:58:01.060Z,4.07
2019-01-15T02:00:31.745Z,4.08
2019-01-15T02:03:02.134Z,4.14
2019-01-15T02:05:33.095Z,4.12
2019-01-15T02:08:03.581Z,4.06
2019-01-15T02:10:33.925Z,4.08
2019-01-15T02:13:04.621Z,4.07
2019-01-15T02:15:35.211Z,3.98
2019-01-15T02:18:05.725Z,4.00
2019-01-15T02:20:36.475Z,3.95
2019-01-15T02:23:07.030Z,3.88
2019-01-15T02:25:37.484Z,3.86
2019-01-15T02:28:08.181Z,3.81
2019-01-15T02:30:38.720Z,3.88
2019-01-15T02:33:09.075Z,3.87
2019-01-15T02:35:39.665Z,3.73
2019-01-15T02:38:10.251Z,3.71
2019-01-15T02:40:40.691Z,3.77
2019-01-15T02:43:11.443Z,3.77
2019-01-15T02:45:42.124Z,3.71
2019-01-15T02:48:12.542Z,3.70
2019-01-15T02:50:43.100Z,3.59
2019-01-15T02:53:13.925Z,3.53
2019-01-15T02:55:44.778Z,3.49
2019-01-15T02:58:16.455Z,3.50
2019-01-15T03:00:46.948Z,3.45
2019-01-15T03:03:17.317Z,3.46
2019-01-15T03:05:47.794Z,3.49
2019-01-15T03:08:18.169Z,3.47
2019-01-15T03:10:48.735Z,3.41
2019-01-15T03:13:19.528Z,3.35
2019-01-15T03:15:50.025Z,3.41
2019-01-15T03:18:20.383Z,3.43
2019-01-15T03:20:51.039Z,3.47
2019-01-15T03:23:21.419Z,3.49
2019-01-15T03:25:51.719Z,3.50
2019-01-15T03:28:22.369Z,3.45
2019-01-15T03:30:52.770Z,3.49
2019-01-15T03:33:23.792Z,3.47
2019-01-15T03:35:54.385Z,3.47
2019-01-15T03:38:24.747Z,3.41
2019-01-15T03:40:55.275Z,3.41
2019-01-15T03:43:25.794Z,3.36
2019-01-15T03:46:03.995Z,3.34
2019-01-15T03:48:28.683Z,3.26
2019-01-15T03:50:59.234Z,3.23
2019-01-15T03:53:32.535Z,3.32
2019-01-15T03:56:03.283Z,3.33
2019-01-15T03:58:33.791Z,3.33
2019-01-15T04:01:04.351Z,3.39
2019-01-15T04:03:34.963Z,3.34
2019-01-15T04:06:05.779Z,3.36
2019-01-15T04:08:36.209Z,3.35
2019-01-15T04:11:07.352Z,3.33
2019-01-15T04:13:40.328Z,3.38
2019-01-15T04:16:11.339Z,3.36
2019-01-15T04:18:41.892Z,3.32
2019-01-15T04:21:12.420Z,3.36
2019-01-15T04:23:42.810Z,3.33
2019-01-15T04:26:13.246Z,3.30
2019-01-15T04:28:45.389Z,3.30
2019-01-15T04:31:15.935Z,3.27
2019-01-15T04:33:49.534Z,3.30
2019-01-15T04:36:20.183Z,3.25
2019-01-15T04:38:50.495Z,3.12
2019-01-15T04:41:20.870Z,3.03
2019-01-15T04:43:51.327Z,2.96
2019-01-15T04:46:22.024Z,2.93
2019-01-15T04:48:54.218Z,2.90
2019-01-15T04:51:24.698Z,2.85
2019-01-15T04:53:55.448Z,2.86
2019-01-15T04:56:26.133Z,2.80
2019-01-15T04:58:56.918Z,2.80
2019-01-15T05:01:27.430Z,2.78
2019-01-15T05:03:58.229Z,2.69
2019-01-15T05:06:29.181Z,2.67
2019-01-15T05:08:59.827Z,2.73
2019-01-15T05:11:30.729Z,2.71
2019-01-15T05:14:01.351Z,2.70
2019-01-15T05:16:32.105Z,2.73
2019-01-15T05:19:02.609Z,2.73
2019-01-15T05:21:33.458Z,2.77
2019-01-15T05:24:07.120Z,2.77
2019-01-15T05:26:38.403Z,2.78
2019-01-15T05:29:09.138Z,2.82
2019-01-15T05:31:39.866Z,2.79
2019-01-15T05:34:10.302Z,2.82
2019-01-15T05:36:40.935Z,2.80
2019-01-15T05:39:11.449Z,2.86
2019-01-15T05:41:42.050Z,2.87
2019-01-15T05:44:13.364Z,2.89
2019-01-15T05:46:44.127Z,2.91
2019-01-15T05:49:14.630Z,2.85
2019-01-15T05:51:46.645Z,2.88
2019-01-15T05:54:17.350Z,2.91
2019-01-15T05:56:47.944Z,2.93
2019-01-15T05:59:18.525Z,2.97
2019-01-15T06:01:49.216Z,2.88
2019-01-15T06:04:19.672Z,2.94
2019-01-15T06:06:50.142Z,3.00
2019-01-15T06:09:20.617Z,3.00
2019-01-15T06:11:51.278Z,2.93
2019-01-15T06:14:21.913Z,2.85
2019-01-15T06:16:53.491Z,2.89
2019-01-15T06:19:24.367Z,2.87
2019-01-15T06:21:58.796Z,2.90
2019-01-15T06:24:29.772Z,3.03
2019-01-15T06:27:01.823Z,2.94
2019-01-15T06:29:32.394Z,2.99
2019-01-15T06:32:02.995Z,2.95
2019-01-15T06:34:35.170Z,2.92
2019-01-15T06:37:07.113Z,2.88
2019-01-15T06:39:37.816Z,2.83
2019-01-15T06:42:09.181Z,2.86
2019-01-15T06:44:39.631Z,2.88
2019-01-15T06:47:10.106Z,2.83
2019-01-15T06:49:40.773Z,2.78
2019-01-15T06:52:11.363Z,2.80
2019-01-15T06:54:42.707Z,2.84
2019-01-15T06:57:15.561Z,2.77
2019-01-15T06:59:46.181Z,2.81
2019-01-15T07:02:16.810Z,2.81
2019-01-15T07:04:47.486Z,2.74
2019-01-15T07:07:18.059Z,2.81
2019-01-15T07:09:48.789Z,2.83
2019-01-15T07:12:19.461Z,2.81
2019-01-15T07:14:50.033Z,2.81
2019-01-15T07:17:20.554Z,2.86
2019-01-15T07:19:51.228Z,2.86
2019-01-15T07:22:21.726Z,2.94
2019-01-15T07:24:52.196Z,3.09
2019-01-15T07:27:22.747Z,3.11
2019-01-15T07:29:53.237Z,3.14
2019-01-15T07:32:23.657Z,3.22
2019-01-15T07:34:54.251Z,3.15
2019-01-15T07:37:24.616Z,3.10
2019-01-15T07:39:55.314Z,3.05
2019-01-15T07:42:25.808Z,3.14
2019-01-15T07:44:57.506Z,3.17
2019-01-15T07:47:28.382Z,3.25
2019-01-15T07:49:58.891Z,3.31
2019-01-15T07:52:29.278Z,3.44
2019-01-15T07:54:59.780Z,3.45
2019-01-15T07:57:30.403Z,3.39
2019-01-15T08:00:00.939Z,3.45
2019-01-15T08:02:31.467Z,3.48
2019-01-15T08:05:01.984Z,3.51
2019-01-15T08:07:32.547Z,3.51
2019-01-15T08:10:03.211Z,3.53
2019-01-15T08:12:34.205Z,3.62
2019-01-15T08:15:06.152Z,3.57
2019-01-15T08:17:36.562Z,3.61
2019-01-15T08:20:07.781Z,3.59
2019-01-15T08:22:38.199Z,3.62
2019-01-15T08:25:09.159Z,3.71
2019-01-15T08:27:39.863Z,3.61
2019-01-15T08:30:15.041Z,3.55
2019-01-15T08:32:45.535Z,3.30
2019-01-15T08:35:16.509Z,3.03
2019-01-15T08:37:46.931Z,2.83
2019-01-15T08:40:17.629Z,2.73
2019-01-15T08:42:48.672Z,2.63
2019-01-15T08:45:19.798Z,2.63
2019-01-15T08:47:52.213Z,2.48
2019-01-15T08:50:24.944Z,2.49
2019-01-15T08:52:56.136Z,2.43
2019-01-15T08:55:26.674Z,2.41
2019-01-15T08:57:57.259Z,2.30
2019-01-15T09:00:28.701Z,2.24
2019-01-15T09:02:59.872Z,2.18
2019-01-15T09:05:30.683Z,2.03
2019-01-15T09:08:01.396Z,2.04
2019-01-15T09:10:32.103Z,2.01
2019-01-15T09:13:02.641Z,1.99
2019-01-15T09:15:33.238Z,1.98
2019-01-15T09:18:03.870Z,1.99
2019-01-15T09:20:34.462Z,2.13
2019-01-15T09:23:04.950Z,2.09
2019-01-15T09:25:35.586Z,2.04
2019-01-15T09:28:06.153Z,2.07
2019-01-15T09:30:36.505Z,2.05
2019-01-15T09:33:06.905Z,2.02
2019-01-15T09:35:37.242Z,1.99
2019-01-15T09:38:10.783Z,2.03
2019-01-15T09:40:41.371Z,2.08
2019-01-15T09:43:12.307Z,1.93
2019-01-15T09:45:43.270Z,1.91
2019-01-15T09:48:20.016Z,1.83
2019-01-15T09:50:51.859Z,1.89
2019-01-15T09:53:23.368Z,1.76
2019-01-15T09:55:54.027Z,1.69
2019-01-15T09:58:24.760Z,1.59
2019-01-15T10:00:56.705Z,1.59
2019-01-15T10:03:27.238Z,1.49
2019-01-15T10:05:57.629Z,1.46
2019-01-15T10:08:29.178Z,1.42
2019-01-15T10:10:59.661Z,1.54
2019-01-15T10:13:30.119Z,1.57
2019-01-15T10:16:00.781Z,1.56
2019-01-15T10:18:31.426Z,1.51
2019-01-15T10:21:01.935Z,1.53
2019-01-15T10:23:32.814Z,1.53
2019-01-15T10:26:03.282Z,1.56
2019-01-15T10:28:33.949Z,1.65
2019-01-15T10:31:31.188Z,1.60
2019-01-15T10:34:06.850Z,1.64
2019-01-15T10:36:34.836Z,1.63
2019-01-15T10:39:08.590Z,1.65
2019-01-15T10:41:39.406Z,1.73
2019-01-15T10:44:20.387Z,1.69
2019-01-15T10:46:50.876Z,1.65
2019-01-15T10:49:21.276Z,1.66
2019-01-15T10:51:51.861Z,1.76
2019-01-15T10:54:22.390Z,1.82
2019-01-15T10:56:52.818Z,1.86
2019-01-15T10:59:23.308Z,1.91
2019-01-15T11:01:54.397Z,1.87
2019-01-15T11:04:24.832Z,1.84
2019-01-15T11:06:55.271Z,1.84
2019-01-15T11:09:25.680Z,1.86
2019-01-15T11:11:57.913Z,1.77
2019-01-15T11:14:28.394Z,1.77
2019-01-15T11:16:59.102Z,1.78
2019-01-15T11:19:29.715Z,1.84
2019-01-15T11:22:00.314Z,1.76
2019-01-15T11:24:30.815Z,1.84
2019-01-15T11:27:02.019Z,1.88
2019-01-15T11:29:33.055Z,1.96
2019-01-15T11:32:04.694Z,2.00
2019-01-15T11:34:35.184Z,2.03
2019-01-15T11:37:05.633Z,1.97
2019-01-15T11:39:36.208Z,1.87
2019-01-15T11:42:06.801Z,1.87
2019-01-15T11:44:37.180Z,1.93
2019-01-15T11:47:07.905Z,2.04
2019-01-15T11:49:38.590Z,1.98
2019-01-15T11:52:09.111Z,1.89
2019-01-15T11:54:39.782Z,1.79
2019-01-15T11:57:10.115Z,1.71
2019-01-15T11:59:41.169Z,1.71
2019-01-15T12:02:31.569Z,1.70
2019-01-15T12:05:36.421Z,1.78
2019-01-15T12:08:36.518Z,1.88
2019-01-15T12:11:27.114Z,1.81
2019-01-15T12:14:19.350Z,1.91
2019-01-15T12:17:14.774Z,1.90
2019-01-15T12:20:04.554Z,1.80
2019-01-15T12:22:50.152Z,1.88
2019-01-15T12:25:40.650Z,1.92
2019-01-15T12:28:30.219Z,1.99
2019-01-15T12:31:19.792Z,1.98
2019-01-15T12:34:08.982Z,1.81
2019-01-15T12:37:03.553Z,1.87
2019-01-15T12:40:05.201Z,1.82
2019-01-15T12:43:10.157Z,1.86
2019-01-15T12:45:49.390Z,1.93
2019-01-15T12:48:37.748Z,2.01
2019-01-15T12:51:27.418Z,1.98
2019-01-15T12:54:15.688Z,1.98
2019-01-15T12:57:08.061Z,2.16
2019-01-15T13:00:14.683Z,2.18
2019-01-15T13:03:07.011Z,2.19
2019-01-15T13:05:59.585Z,2.28
2019-01-15T13:08:45.696Z,2.19
2019-01-15T13:11:39.884Z,2.28
2019-01-15T13:14:41.415Z,2.23
2019-01-15T13:17:33.752Z,2.24
2019-01-15T13:20:24.032Z,2.18
2019-01-15T13:23:04.610Z,2.10
2019-01-15T13:25:50.591Z,2.04
2019-01-15T13:28:40.490Z,1.91
2019-01-15T13:31:25.791Z,1.83
2019-01-15T13:34:07.571Z,1.87
2019-01-15T13:36:51.127Z,1.80
2019-01-15T13:39:44.581Z,1.75
2019-01-15T13:42:33.812Z,1.71
2019-01-15T13:45:23.923Z,1.81
2019-01-15T13:48:12.078Z,1.84
2019-01-15T13:51:09.125Z,1.79
2019-01-15T13:54:01.362Z,1.73
2019-01-15T13:56:56.886Z,1.67
2019-01-15T13:59:49.815Z,1.72
2019-01-15T14:02:39.232Z,1.72
2019-01-15T14:05:33.600Z,1.75
2019-01-15T14:08:24.405Z,1.74
2019-01-15T14:11:21.140Z,1.81
2019-01-15T14:14:09.290Z,1.73
2019-01-15T14:17:04.707Z,1.76
2019-01-15T14:19:53.973Z,1.71
2019-01-15T14:22:49.795Z,1.69
2019-01-15T14:25:54.823Z,1.67
2019-01-15T14:28:53.331Z,1.66
2019-01-15T14:31:39.621Z,1.68
2019-01-15T14:34:28.771Z,1.58
2019-01-15T14:37:27.980Z,1.62
2019-01-15T14:40:23.392Z,1.58
2019-01-15T14:43:11.447Z,1.60
2019-01-15T14:46:06.052Z,1.57
2019-01-15T14:48:52.238Z,1.53
2019-01-15T14:51:43.155Z,1.49
2019-01-15T14:54:47.781Z,1.45
2019-01-15T14:57:48.826Z,1.34
2019-01-15T15:00:42.601Z,1.29
2019-01-15T15:03:30.822Z,1.31
2019-01-15T15:06:18.389Z,1.25
2019-01-15T15:09:06.310Z,1.23
2019-01-15T15:11:54.570Z,1.25
2019-01-15T15:14:49.677Z,1.30
2019-01-15T15:17:39.255Z,1.27
2019-01-15T15:20:32.193Z,1.23
2019-01-15T15:23:20.342Z,1.23
2019-01-15T15:26:01.530Z,1.25
2019-01-15T15:29:04.610Z,1.20
2019-01-15T15:32:03.039Z,1.14
2019-01-15T15:34:59.283Z,1.18
2019-01-15T15:37:47.194Z,1.15
2019-01-15T15:40:46.056Z,1.14
2019-01-15T15:43:44.460Z,1.11
2019-01-15T15:46:37.086Z,1.14
2019-01-15T15:49:29.637Z,1.07
2019-01-15T15:52:12.457Z,1.13
2019-01-15T15:55:10.436Z,1.17
2019-01-15T15:58:06.975Z,1.11
2019-01-15T16:01:05.502Z,1.13
2019-01-15T16:04:04.053Z,1.09
2019-01-15T16:06:46.827Z,1.09
2019-01-15T16:09:46.989Z,1.09
2019-01-15T16:12:42.503Z,1.07
2019-01-15T16:15:41.194Z,0.94
2019-01-15T16:18:30.975Z,0.87
2019-01-15T16:21:29.876Z,0.89
2019-01-15T16:24:20.433Z,0.81
2019-01-15T16:27:10.567Z,0.81
2019-01-15T16:30:00.193Z,0.86
2019-01-15T16:33:02.598Z,0.83
2019-01-15T16:35:43.189Z,0.79
2019-01-15T16:38:32.931Z,0.77
2019-01-15T16:41:31.043Z,0.74
2019-01-15T16:44:19.291Z,0.75
2019-01-15T16:47:18.648Z,0.72
2019-01-15T16:50:14.721Z,0.72
2019-01-15T16:53:00.210Z,0.68
2019-01-15T16:55:48.462Z,0.60
2019-01-15T16:58:43.465Z,0.55
2019-01-15T17:01:31.835Z,0.44
2019-01-15T17:04:29.981Z,0.30
2019-01-15T17:07:23.039Z,0.28
2019-01-15T17:10:24.505Z,0.28
2019-01-15T17:13:12.866Z,0.20
2019-01-15T17:16:01.506Z,0.19
2019-01-15T17:18:43.225Z,0.15
2019-01-15T17:21:31.132Z,0.08
2019-01-15T17:24:14.977Z,0.15
2019-01-15T17:27:13.916Z,0.15
2019-01-15T17:30:02.151Z,0.10
2019-01-15T17:32:54.462Z,0.09
2019-01-15T17:35:39.136Z,0.09
2019-01-15T17:38:28.609Z,0.02
2019-01-15T17:41:26.688Z,-0.03
2019-01-15T17:44:16.038Z,-0.07
2019-01-15T17:47:05.328Z,-0.12
2019-01-15T17:49:53.767Z,-0.24
2019-01-15T17:52:47.253Z,-0.27
2019-01-15T17:55:26.680Z,-0.27
2019-01-15T17:58:16.165Z,-0.32
2019-01-15T18:01:08.192Z,-0.31
2019-01-15T18:03:56.735Z,-0.35
2019-01-15T18:06:58.197Z,-0.32
2019-01-15T18:09:57.805Z,-0.36
2019-01-15T18:12:53.227Z,-0.36
2019-01-15T18:15:31.746Z,-0.40
2019-01-15T18:18:32.991Z,-0.37
2019-01-15T18:21:12.239Z,-0.40
2019-01-15T18:24:14.234Z,-0.42
2019-01-15T18:27:03.380Z,-0.40
2019-01-15T18:29:44.242Z,-0.43
2019-01-15T18:32:31.661Z,-0.51
2019-01-15T18:35:19.761Z,-0.52
2019-01-15T18:38:02.622Z,-0.55
2019-01-15T18:40:51.285Z,-0.57
2019-01-15T18:43:40.668Z,-0.66
2019-01-15T18:46:28.336Z,-0.63
2019-01-15T18:49:17.570Z,-0.64
2019-01-15T18:52:05.703Z,-0.63
2019-01-15T18:55:04.295Z,-0.66
2019-01-15T18:57:52.856Z,-0.62
2019-01-15T19:00:50.994Z,-0.68
2019-01-15T19:03:40.113Z,-0.59
2019-01-15T19:06:28.157Z,-0.62
2019-01-15T19:09:20.633Z,-0.73
2019-01-15T19:12:00.708Z,-0.64
2019-01-15T19:14:49.967Z,-0.67
2019-01-15T19:17:37.911Z,-0.60
2019-01-15T19:20:28.741Z,-0.58
2019-01-15T19:23:12.487Z,-0.59
2019-01-15T19:26:07.806Z,-0.63
2019-01-15T19:28:59.031Z,-0.59
2019-01-15T19:31:51.562Z,-0.53
2019-01-15T19:34:40.718Z,-0.52
2019-01-15T19:37:39.106Z,-0.53
2019-01-15T19:40:22.451Z,-0.45
2019-01-15T19:43:14.362Z,-0.45
2019-01-15T19:46:02.068Z,-0.46
2019-01-15T19:48:51.273Z,-0.45
2019-01-15T19:51:56.217Z,-0.49
2019-01-15T19:54:45.384Z,-0.55
2019-01-15T19:57:47.710Z,-0.53
2019-01-15T20:00:43.190Z,-0.52
2019-01-15T20:03:32.744Z,-0.64
2019-01-15T20:06:37.793Z,-0.46
2019-01-15T20:09:30.956Z,-0.45
2019-01-15T20:12:34.363Z,-0.44
2019-01-15T20:15:23.118Z,-0.47
2019-01-15T20:18:28.674Z,-0.41
2019-01-15T20:21:10.754Z,-0.43
2019-01-15T20:24:04.537Z,-0.40
2019-01-15T20:26:56.984Z,-0.39
2019-01-15T20:29:40.306Z,-0.42
2019-01-15T20:32:28.662Z,-0.38
2019-01-15T20:35:23.868Z,-0.45
2019-01-15T20:38:16.439Z,-0.57
2019-01-15T20:41:08.849Z,-0.50
2019-01-15T20:43:57.410Z,-0.52
2019-01-15T20:46:49.446Z,-0.60
2019-01-15T20:49:55.222Z,-0.62
2019-01-15T20:52:47.177Z,-0.65
2019-01-15T20:55:35.317Z,-0.67
2019-01-15T20:58:36.884Z,-0.65
2019-01-15T21:01:15.503Z,-0.64
2019-01-15T21:04:21.566Z,-0.62
2019-01-15T21:07:10.321Z,-0.60
2019-01-15T21:10:00.424Z,-0.72
2019-01-15T21:12:48.460Z,-0.69
2019-01-15T21:15:38.639Z,-0.69
2019-01-15T21:18:27.184Z,-0.69
2019-01-15T21:21:19.218Z,-0.72
2019-01-15T21:24:26.935Z,-0.77
2019-01-15T21:27:22.354Z,-0.78
2019-01-15T21:30:10.819Z,-0.85
2019-01-15T21:33:00.488Z,-0.84
2019-01-15T21:36:02.329Z,-0.82
2019-01-15T21:39:07.068Z,-0.79
2019-01-15T21:42:11.487Z,-0.85
2019-01-15T21:45:19.016Z,-0.82
2019-01-15T21:48:06.332Z,-0.99
2019-01-15T21:50:53.326Z,-0.95
2019-01-15T21:53:48.762Z,-0.96
2019-01-15T21:56:44.250Z,-1.06
2019-01-15T21:59:43.352Z,-1.10
2019-01-15T22:02:37.436Z,-1.17
2019-01-15T22:05:19.959Z,-1.19
2019-01-15T22:08:15.302Z,-1.28
2019-01-15T22:10:57.587Z,-1.30
2019-01-15T22:13:45.605Z,-1.27
2019-01-15T22:16:38.610Z,-1.34
2019-01-15T22:19:27.473Z,-1.34
2019-01-15T22:22:15.525Z,-1.45
2019-01-15T22:25:07.928Z,-1.37
2019-01-15T22:28:15.199Z,-1.48
2019-01-15T22:31:13.181Z,-1.58
2019-01-15T22:34:12.036Z,-1.57
2019-01-15T22:37:11.329Z,-1.57
2019-01-15T22:40:15.803Z,-1.61
2019-01-15T22:43:05.394Z,-1.62
2019-01-15T22:46:01.714Z,-1.59
2019-01-15T22:48:47.000Z,-1.68
2019-01-15T22:51:44.222Z,-1.64
2019-01-15T22:54:48.570Z,-1.75
2019-01-15T22:57:53.454Z,-1.76
2019-01-15T23:01:04.381Z,-1.78
2019-01-15T23:04:03.892Z,-1.82
2019-01-15T23:06:51.634Z,-1.81
2019-01-15T23:10:00.700Z,-1.84
2019-01-15T23:12:56.080Z,-1.84
2019-01-15T23:15:44.023Z,-1.99
2019-01-15T23:18:33.026Z,-1.96
2019-01-15T23:21:25.335Z,-1.90
2019-01-15T23:24:33.947Z,-1.82
2019-01-15T23:27:20.860Z,-2.37
2019-01-15T23:30:12.905Z,-1.86
2019-01-15T23:33:02.379Z,-1.96
2019-01-15T23:35:50.620Z,-1.89
2019-01-15T23:38:43.361Z,-1.99
2019-01-15T23:41:35.707Z,-2.05
2019-01-15T23:44:25.293Z,-2.11
2019-01-15T23:47:13.423Z,-2.09
2019-01-15T23:50:02.545Z,-2.12
2019-01-15T23:52:50.942Z,-2.14
2019-01-15T23:55:43.079Z,-2.15
2019-01-15T23:58:44.651Z,-2.15
